Time;durP1;ratioP1;P1;durP2;ratioP2;P2;SDS_P1;SDS_P2;PMS_P1;PMS_P2;Temp;Humidity;BMP_temperature;BMP_pressure;BME280_temperature;BME280_humidity;BME280_pressure;Samples;Min_cycle;Max_cycle;Signal;HPM_P1;HPM_P2
2022/10/27 00:00:44;;;;;;;17.25;11.10;;;;;;;14.43;73.65;100759.81;4452059;32;34237;-81
2022/10/27 00:03:13;;;;;;;16.00;10.82;;;;;;;14.79;72.27;100761.19;4438788;32;34348;-74
2022/10/27 00:05:43;;;;;;;18.15;11.30;;;;;;;14.51;72.87;100762.97;4452147;32;33931;-79
2022/10/27 00:08:16;;;;;;;17.42;11.05;;;;;;;14.38;73.56;100766.00;4453100;32;33268;-80
2022/10/27 00:10:44;;;;;;;16.37;9.85;;;;;;;14.03;75.01;100766.25;4437335;32;33789;-74
2022/10/27 00:13:12;;;;;;;18.25;10.60;;;;;;;14.35;73.78;100761.88;4437512;32;34207;-75
2022/10/27 00:15:40;;;;;;;14.30;10.13;;;;;;;14.12;74.46;100762.87;4411722;32;33209;-76
2022/10/27 00:18:09;;;;;;;16.02;10.85;;;;;;;13.91;75.17;100764.44;4455011;32;34219;-79
2022/10/27 00:20:37;;;;;;;16.80;10.30;;;;;;;14.24;73.74;100768.25;4455151;32;34660;-77
2022/10/27 00:23:04;;;;;;;15.35;10.20;;;;;;;14.50;72.56;100765.94;4456117;32;34279;-79
2022/10/27 00:25:32;;;;;;;17.12;10.90;;;;;;;14.39;72.74;100764.12;4455159;32;34575;-76
2022/10/27 00:27:59;;;;;;;16.52;10.52;;;;;;;13.93;74.71;100766.91;4454943;32;33796;-75
2022/10/27 00:30:26;;;;;;;16.90;11.05;;;;;;;13.98;74.43;100767.00;4454969;32;33958;-76
2022/10/27 00:32:54;;;;;;;15.77;10.27;;;;;;;14.06;74.27;100769.34;4454079;32;34287;-81
2022/10/27 00:35:21;;;;;;;16.55;10.60;;;;;;;13.88;75.01;100769.53;4456309;32;33926;-81
2022/10/27 00:37:49;;;;;;;16.90;10.52;;;;;;;13.97;74.73;100761.78;4454696;32;34218;-75
2022/10/27 00:40:17;;;;;;;18.65;9.82;;;;;;;14.07;74.73;100767.41;4454944;32;33894;-74
2022/10/27 00:42:44;;;;;;;16.35;11.18;;;;;;;14.04;74.72;100768.75;4455152;32;34087;-76
2022/10/27 00:45:12;;;;;;;15.38;9.95;;;;;;;13.80;75.44;100775.41;4454931;32;34677;-76
2022/10/27 00:47:39;;;;;;;16.25;10.52;;;;;;;14.24;73.59;100784.62;4454818;32;34549;-76
2022/10/27 00:50:18;;;;;;;15.82;10.63;;;;;;;14.16;73.50;100774.94;4453011;32;33972;-76
2022/10/27 00:53:03;;;;;;;14.82;9.77;;;;;;;13.68;75.36;100776.28;4441027;32;34261;-81
2022/10/27 00:55:33;;;;;;;14.85;10.15;;;;;;;13.85;74.91;100779.06;4441161;32;33946;-81
2022/10/27 00:58:03;;;;;;;15.98;10.68;;;;;;;13.77;75.04;100790.34;4440761;32;34238;-82
2022/10/27 01:00:31;;;;;;;16.10;10.15;;;;;;;13.55;75.82;100787.50;4454741;32;34653;-79
2022/10/27 01:02:59;;;;;;;15.90;10.82;;;;;;;13.83;75.10;100789.37;4440929;32;34650;-81
2022/10/27 01:05:27;;;;;;;16.00;10.10;;;;;;;14.18;73.44;100788.34;4454631;32;34772;-82
2022/10/27 01:07:57;;;;;;;17.33;10.60;;;;;;;14.29;72.55;100794.81;4440740;32;33734;-82
2022/10/27 01:10:25;;;;;;;15.43;9.88;;;;;;;13.84;74.30;100796.47;4441223;32;33948;-82
2022/10/27 01:12:54;;;;;;;17.02;10.68;;;;;;;13.71;75.19;100796.78;4441889;32;34913;-76
2022/10/27 01:16:00;;;;;;;17.75;11.00;;;;;;;13.90;74.75;100805.59;4440430;32;34249;-74
2022/10/27 01:18:53;;;;;;;20.15;12.40;;;;;;;13.84;75.25;100801.94;4452159;32;34419;-76
2022/10/27 01:21:34;;;;;;;19.52;12.00;;;;;;;14.03;74.60;100788.91;4439718;32;34130;-79
2022/10/27 01:24:50;;;;;;;20.83;12.52;;;;;;;13.62;77.33;100795.53;4425473;32;34234;-80
2022/10/27 01:27:24;;;;;;;20.25;12.85;;;;;;;13.85;76.35;100805.50;4424249;32;33909;-75
2022/10/27 01:29:55;;;;;;;19.27;11.65;;;;;;;13.69;77.28;100809.84;4439153;32;33413;-81
2022/10/27 01:32:44;;;;;;;23.55;14.32;;;;;;;13.87;76.30;100811.56;4439288;32;34018;-81
2022/10/27 01:35:33;;;;;;;23.77;13.82;;;;;;;13.41;79.07;100802.47;4442038;32;34311;-79
2022/10/27 01:38:00;;;;;;;22.58;14.00;;;;;;;13.73;77.86;100805.56;4439302;32;34720;-76
2022/10/27 01:40:40;;;;;;;20.35;12.93;;;;;;;13.92;77.10;100817.91;4454566;32;33612;-80
2022/10/27 01:43:12;;;;;;;23.90;14.20;;;;;;;13.97;77.18;100806.25;4454080;32;34807;-75
2022/10/27 01:45:41;;;;;;;22.90;14.57;;;;;;;13.81;77.69;100807.06;4440610;32;33913;-74
2022/10/27 01:48:09;;;;;;;25.70;14.63;;;;;;;13.75;77.97;100803.41;4438774;32;34317;-82
2022/10/27 01:50:38;;;;;;;22.65;13.93;;;;;;;13.84;77.62;100801.12;4440240;32;33398;-75
2022/10/27 01:53:23;;;;;;;24.00;14.55;;;;;;;14.07;76.36;100805.63;4454385;32;33853;-82
2022/10/27 01:56:03;;;;;;;24.05;13.77;;;;;;;14.39;75.02;100808.62;4453220;32;33968;-79
2022/10/27 01:58:36;;;;;;;22.98;14.10;;;;;;;14.21;75.76;100803.41;4454470;32;34671;-75
2022/10/27 02:01:20;;;;;;;23.42;13.77;;;;;;;14.25;75.74;100804.56;4453121;32;33697;-75
2022/10/27 02:03:57;;;;;;;22.70;14.30;;;;;;;14.11;76.37;100806.78;4440935;32;35076;-75
2022/10/27 02:06:36;;;;;;;21.62;13.18;;;;;;;14.40;75.29;100815.72;4440476;32;34861;-79
2022/10/27 02:09:13;;;;;;;20.83;12.63;;;;;;;14.30;75.65;100807.41;4454542;32;33995;-80
2022/10/27 02:11:43;;;;;;;24.80;14.00;;;;;;;14.28;75.72;100815.81;4453530;32;33259;-74
2022/10/27 02:14:11;;;;;;;21.48;13.25;;;;;;;14.50;74.59;100809.63;4438543;32;34067;-80
2022/10/27 02:16:42;;;;;;;23.80;14.18;;;;;;;14.39;74.61;100816.81;4440198;32;33804;-76
2022/10/27 02:19:24;;;;;;;23.20;13.75;;;;;;;14.24;75.01;100816.56;4440032;32;34544;-80
2022/10/27 02:21:55;;;;;;;25.37;14.93;;;;;;;14.31;74.76;100822.69;4439391;32;33517;-76
2022/10/27 02:24:23;;;;;;;22.02;14.32;;;;;;;14.16;75.04;100815.88;4426788;32;33939;-76
2022/10/27 02:27:11;;;;;;;20.92;12.88;;;;;;;13.96;75.39;100810.06;4440254;32;34129;-75
2022/10/27 02:29:47;;;;;;;22.85;14.35;;;;;;;14.23;74.49;100809.44;4453290;32;34061;-76
2022/10/27 02:32:17;;;;;;;21.50;12.98;;;;;;;14.38;73.19;100808.88;4438799;32;33664;-75
2022/10/27 02:34:46;;;;;;;22.02;14.18;;;;;;;14.12;74.00;100806.56;4439292;32;33999;-76
2022/10/27 02:37:28;;;;;;;22.98;14.10;;;;;;;14.28;72.90;100815.00;4440258;32;35009;-75
2022/10/27 02:39:56;;;;;;;22.33;13.80;;;;;;;14.39;72.40;100814.09;4439360;32;34051;-76
2022/10/27 02:42:23;;;;;;;20.37;13.68;;;;;;;13.89;74.01;100817.59;4454204;32;33415;-77
2022/10/27 02:44:51;;;;;;;21.87;13.18;;;;;;;14.31;72.31;100818.03;4452474;32;33977;-75
2022/10/27 02:47:18;;;;;;;20.62;13.45;;;;;;;14.34;71.58;100817.56;4451148;32;33765;-76
2022/10/27 02:49:46;;;;;;;22.37;13.88;;;;;;;14.16;72.34;100825.97;4453507;32;34601;-81
2022/10/27 02:52:13;;;;;;;23.33;13.98;;;;;;;13.86;73.22;100824.34;4455316;32;34332;-82
2022/10/27 02:54:42;;;;;;;24.33;14.27;;;;;;;13.50;74.82;100818.22;4453777;32;34442;-75
2022/10/27 02:57:09;;;;;;;23.95;13.68;;;;;;;13.24;76.30;100821.44;4449275;32;34962;-75
2022/10/27 02:59:36;;;;;;;22.05;12.68;;;;;;;13.53;75.38;100820.44;4451914;32;33618;-73
2022/10/27 03:02:04;;;;;;;25.58;13.77;;;;;;;13.56;75.30;100821.03;4451311;32;34540;-80
2022/10/27 03:04:31;;;;;;;23.42;14.00;;;;;;;13.31;76.85;100822.19;4451774;32;34898;-76
2022/10/27 03:06:59;;;;;;;25.23;14.82;;;;;;;13.37;76.87;100812.19;4451653;32;33974;-75
2022/10/27 03:09:26;;;;;;;26.15;14.93;;;;;;;13.59;76.12;100818.66;4452617;32;33702;-76
2022/10/27 03:11:54;;;;;;;27.20;14.52;;;;;;;13.43;77.20;100811.22;4439747;32;33009;-77
2022/10/27 03:14:21;;;;;;;24.95;14.77;;;;;;;13.71;76.18;100816.72;4450144;32;34693;-73
2022/10/27 03:16:49;;;;;;;27.95;15.73;;;;;;;13.35;78.14;100826.09;4443244;32;34208;-77
2022/10/27 03:19:16;;;;;;;28.48;15.80;;;;;;;13.65;76.90;100830.47;4453719;32;34779;-75
2022/10/27 03:21:44;;;;;;;27.75;16.05;;;;;;;13.70;77.05;100834.13;4453752;32;34214;-77
2022/10/27 03:24:12;;;;;;;29.73;15.95;;;;;;;13.83;76.50;100843.13;4449417;32;33940;-73
2022/10/27 03:26:40;;;;;;;28.65;15.55;;;;;;;13.83;76.77;100840.37;4449186;32;34145;-76
2022/10/27 03:29:07;;;;;;;27.05;15.38;;;;;;;14.07;75.81;100838.38;4451633;32;34074;-74
2022/10/27 03:31:35;;;;;;;27.25;16.15;;;;;;;13.82;76.98;100842.28;4453488;32;33470;-76
2022/10/27 03:34:02;;;;;;;33.55;17.67;;;;;;;13.86;77.02;100845.34;4452893;32;33788;-73
2022/10/27 03:36:30;;;;;;;29.37;16.48;;;;;;;13.72;77.84;100839.38;4453491;32;34942;-79
2022/10/27 03:38:57;;;;;;;30.62;16.75;;;;;;;13.65;78.92;100839.50;4438075;32;34775;-76
2022/10/27 03:41:25;;;;;;;29.58;16.42;;;;;;;13.63;79.13;100848.97;4450171;32;33367;-76
2022/10/27 03:43:52;;;;;;;28.00;16.05;;;;;;;13.73;79.08;100835.56;4440920;32;33903;-74
2022/10/27 03:46:20;;;;;;;31.48;17.05;;;;;;;14.01;77.75;100848.34;4437612;32;34153;-73
2022/10/27 03:48:48;;;;;;;28.20;16.00;;;;;;;13.94;78.06;100853.16;4444190;32;34047;-83
2022/10/27 03:51:15;;;;;;;28.33;15.63;;;;;;;13.96;78.20;100851.00;4448141;32;33733;-84
2022/10/27 03:53:43;;;;;;;30.37;15.93;;;;;;;13.98;78.26;100839.84;4449035;32;33835;-83
2022/10/27 03:56:12;;;;;;;32.08;17.08;;;;;;;14.25;77.18;100851.78;4447934;32;33911;-80
2022/10/27 03:58:39;;;;;;;29.17;16.52;;;;;;;14.40;76.48;100850.41;4455184;32;34693;-76
2022/10/27 04:01:08;;;;;;;31.45;16.73;;;;;;;14.19;77.51;100849.22;4453031;32;33448;-76
2022/10/27 04:03:36;;;;;;;29.73;16.98;;;;;;;14.27;77.23;100849.63;4440474;32;34058;-76
2022/10/27 04:06:04;;;;;;;32.60;17.58;;;;;;;14.26;77.46;100855.38;4455018;32;35007;-76
2022/10/27 04:08:31;;;;;;;28.73;16.12;;;;;;;14.25;77.57;100851.78;4454932;32;34013;-78
2022/10/27 04:10:59;;;;;;;30.65;16.40;;;;;;;14.30;77.11;100851.06;4455103;32;33540;-80
2022/10/27 04:13:26;;;;;;;28.85;16.70;;;;;;;14.24;77.58;100843.87;4453412;32;33954;-75
2022/10/27 04:16:00;;;;;;;28.10;16.48;;;;;;;14.73;75.50;100852.34;4452002;32;34021;-76
2022/10/27 04:18:28;;;;;;;25.80;15.52;;;;;;;14.65;75.43;100863.69;4455092;32;33928;-75
2022/10/27 04:21:02;;;;;;;29.00;16.12;;;;;;;14.47;76.30;100860.09;4441152;32;33600;-75
2022/10/27 04:23:30;;;;;;;29.35;15.70;;;;;;;14.49;76.40;100862.56;4455027;32;33899;-76
2022/10/27 04:25:57;;;;;;;27.10;16.17;;;;;;;14.47;76.45;100867.44;4454882;32;33972;-76
2022/10/27 04:28:25;;;;;;;27.27;15.73;;;;;;;14.59;75.86;100868.22;4454843;32;33776;-74
2022/10/27 04:30:52;;;;;;;29.77;16.12;;;;;;;14.37;76.86;100865.38;4455015;32;33340;-76
2022/10/27 04:33:20;;;;;;;31.27;16.95;;;;;;;14.50;76.34;100865.06;4454771;32;33807;-77
2022/10/27 04:35:54;;;;;;;31.55;15.82;;;;;;;14.43;76.65;100863.56;4454911;32;35122;-76
2022/10/27 04:38:22;;;;;;;27.42;15.60;;;;;;;14.41;76.96;100868.47;4454893;32;34877;-76
2022/10/27 04:40:49;;;;;;;29.80;15.95;;;;;;;14.49;76.56;100874.34;4454614;32;33481;-84
2022/10/27 04:43:17;;;;;;;32.97;17.67;;;;;;;14.28;77.71;100872.31;4454635;32;34832;-76
2022/10/27 04:45:45;;;;;;;26.77;15.27;;;;;;;14.49;76.60;100878.94;4452461;32;34172;-73
2022/10/27 04:48:13;;;;;;;28.77;15.32;;;;;;;14.63;76.11;100885.78;4454857;32;33756;-72
2022/10/27 04:50:40;;;;;;;27.35;15.98;;;;;;;14.68;75.69;100882.31;4454690;32;33302;-73
2022/10/27 04:53:08;;;;;;;30.30;16.05;;;;;;;14.38;77.19;100888.03;4454857;32;34681;-77
2022/10/27 04:55:35;;;;;;;31.37;16.75;;;;;;;14.39;77.25;100885.06;4454851;32;35148;-79
2022/10/27 04:58:03;;;;;;;32.53;17.00;;;;;;;14.40;77.23;100886.72;4454183;32;34002;-82
2022/10/27 05:00:35;;;;;;;35.13;16.23;;;;;;;14.35;77.43;100887.47;4454645;32;33578;-75
2022/10/27 05:03:02;;;;;;;33.08;18.37;;;;;;;14.33;77.63;100888.78;4454242;32;33995;-80
2022/10/27 05:05:30;;;;;;;30.92;17.17;;;;;;;14.63;76.33;100896.72;4454728;32;34275;-80
2022/10/27 05:07:59;;;;;;;32.42;16.35;;;;;;;14.69;76.04;100903.91;4441066;32;33924;-81
2022/10/27 05:10:28;;;;;;;30.20;16.42;;;;;;;14.62;76.11;100907.87;4440661;32;33631;-85
2022/10/27 05:12:56;;;;;;;29.45;16.02;;;;;;;14.29;77.86;100898.53;4454630;32;34745;-78
2022/10/27 05:15:23;;;;;;;34.05;17.42;;;;;;;14.32;77.88;100903.53;4454339;32;35083;-80
2022/10/27 05:17:51;;;;;;;30.33;16.05;;;;;;;14.80;75.86;100909.56;4454375;32;33899;-82
2022/10/27 05:20:19;;;;;;;31.87;17.10;;;;;;;14.74;75.61;100908.63;4454017;32;33583;-78
2022/10/27 05:22:47;;;;;;;31.98;17.33;;;;;;;14.87;75.01;100904.75;4453343;32;33921;-78
2022/10/27 05:25:14;;;;;;;30.60;16.42;;;;;;;14.36;77.39;100907.41;4453352;32;33863;-78
2022/10/27 05:27:42;;;;;;;28.90;16.25;;;;;;;14.41;77.38;100910.22;4439190;32;34055;-78
2022/10/27 05:30:11;;;;;;;27.75;15.32;;;;;;;14.46;77.40;100912.22;4441026;32;33427;-77
2022/10/27 05:32:40;;;;;;;28.35;16.48;;;;;;;14.45;77.58;100916.00;4442788;32;34652;-78
2022/10/27 05:35:13;;;;;;;23.48;13.68;;;;;;;14.52;77.27;100916.72;4453094;32;35210;-78
2022/10/27 05:37:45;;;;;;;24.80;14.32;;;;;;;14.57;77.18;100912.16;4453347;32;33952;-77
2022/10/27 05:40:12;;;;;;;26.67;13.98;;;;;;;14.58;77.00;100910.28;4453202;32;33819;-78
2022/10/27 05:42:48;;;;;;;26.70;15.90;;;;;;;14.42;77.87;100928.25;4439349;32;33842;-77
2022/10/27 05:45:15;;;;;;;30.42;14.10;;;;;;;14.35;78.51;100927.59;4452853;32;34292;-78
2022/10/27 05:47:43;;;;;;;26.87;14.50;;;;;;;14.51;77.75;100929.53;4453347;32;33949;-77
2022/10/27 05:50:10;;;;;;;24.92;14.25;;;;;;;14.50;77.84;100929.78;4448872;32;33447;-75
2022/10/27 05:52:38;;;;;;;27.35;15.10;;;;;;;14.33;78.73;100935.19;4449526;32;33523;-75
2022/10/27 05:55:06;;;;;;;26.15;14.70;;;;;;;14.59;77.65;100938.44;4452006;32;34835;-77
2022/10/27 05:57:33;;;;;;;26.23;15.20;;;;;;;14.69;76.93;100936.69;4452184;32;34576;-76
2022/10/27 06:00:00;;;;;;;25.58;14.90;;;;;;;14.49;78.08;100939.03;4452350;32;33629;-76
2022/10/27 06:02:30;;;;;;;28.27;15.82;;;;;;;14.59;77.82;100941.97;4452536;32;33886;-74
2022/10/27 06:04:58;;;;;;;26.35;14.70;;;;;;;14.21;79.64;100946.19;4461445;32;34107;-76
2022/10/27 06:07:25;;;;;;;29.05;15.13;;;;;;;14.41;78.58;100943.00;4452548;32;34130;-77
2022/10/27 06:09:52;;;;;;;25.23;14.93;;;;;;;13.73;82.47;100948.19;4453701;32;34359;-75
2022/10/27 06:12:20;;;;;;;27.23;15.00;;;;;;;13.87;81.04;100947.97;4453524;32;33998;-75
2022/10/27 06:14:47;;;;;;;29.50;15.57;;;;;;;14.38;78.95;100959.84;4453229;32;35156;-75
2022/10/27 06:17:15;;;;;;;27.58;16.92;;;;;;;14.06;80.12;100965.81;4454210;32;34144;-76
2022/10/27 06:19:42;;;;;;;27.35;15.40;;;;;;;14.22;79.53;100960.66;4453937;32;33761;-75
2022/10/27 06:22:10;;;;;;;27.73;15.82;;;;;;;14.31;79.05;100965.47;4453457;32;34863;-76
2022/10/27 06:24:43;;;;;;;25.77;14.18;;;;;;;13.62;82.97;100970.88;4452933;32;34160;-75
2022/10/27 06:27:10;;;;;;;27.02;14.70;;;;;;;13.91;82.44;100962.78;4453202;32;34142;-77
2022/10/27 06:29:37;;;;;;;24.83;14.32;;;;;;;14.00;81.36;100968.69;4453345;32;33627;-76
2022/10/27 06:32:05;;;;;;;25.55;14.82;;;;;;;14.53;78.05;100967.50;4453701;32;33778;-77
2022/10/27 06:34:32;;;;;;;28.05;14.65;;;;;;;13.79;82.39;100967.41;4453680;32;34083;-76
2022/10/27 06:37:02;;;;;;;27.20;15.27;;;;;;;13.31;85.27;100974.81;4453798;32;33926;-75
2022/10/27 06:39:30;;;;;;;23.90;13.65;;;;;;;13.79;83.49;100983.78;4453513;32;33597;-76
2022/10/27 06:41:58;;;;;;;26.85;14.23;;;;;;;13.31;85.96;100975.63;4439186;32;34675;-77
2022/10/27 06:44:25;;;;;;;24.20;14.35;;;;;;;13.40;86.01;100978.00;4458887;32;35549;-82
2022/10/27 06:46:53;;;;;;;24.50;14.50;;;;;;;13.69;85.09;100979.78;4469422;32;34696;-77
2022/10/27 06:49:20;;;;;;;26.52;13.93;;;;;;;14.18;82.92;100979.41;4469405;32;33589;-75
2022/10/27 06:51:48;;;;;;;24.05;14.20;;;;;;;14.18;82.90;100986.78;4469342;32;33688;-79
2022/10/27 06:54:15;;;;;;;25.75;14.05;;;;;;;14.26;82.40;100991.84;4468407;32;34083;-76
2022/10/27 06:56:43;;;;;;;25.60;14.35;;;;;;;14.65;81.36;100989.34;4460023;32;33585;-77
2022/10/27 06:59:10;;;;;;;30.05;15.93;;;;;;;14.08;83.12;100995.56;4453539;32;34351;-75
2022/10/27 07:01:38;;;;;;;32.40;16.50;;;;;;;13.51;87.75;100994.34;4453836;32;33705;-76
2022/10/27 07:04:05;;;;;;;27.50;15.63;;;;;;;14.51;82.85;100991.50;4453165;32;34221;-76
2022/10/27 07:06:32;;;;;;;29.60;16.00;;;;;;;14.89;81.36;100993.59;4453312;32;35089;-75
2022/10/27 07:09:00;;;;;;;26.90;15.23;;;;;;;14.91;80.19;100993.34;4453523;32;33862;-74
2022/10/27 07:11:32;;;;;;;24.75;13.98;;;;;;;14.55;80.84;100998.16;4451157;32;33317;-75
2022/10/27 07:13:59;;;;;;;23.65;13.93;;;;;;;15.16;78.82;101014.78;4447030;32;34257;-76
2022/10/27 07:16:27;;;;;;;26.40;13.80;;;;;;;15.09;77.83;101014.13;4452462;32;33969;-76
2022/10/27 07:19:01;;;;;;;28.02;15.50;;;;;;;15.51;75.32;101017.28;4452295;32;33312;-75
2022/10/27 07:21:29;;;;;;;23.30;13.68;;;;;;;15.78;74.33;101022.06;4452347;32;34403;-77
2022/10/27 07:23:56;;;;;;;21.52;12.88;;;;;;;15.29;75.22;101024.56;4451799;32;34268;-76
2022/10/27 07:26:23;;;;;;;22.20;12.60;;;;;;;15.17;75.87;101022.75;4451026;32;34849;-77
2022/10/27 07:28:51;;;;;;;20.17;12.60;;;;;;;14.44;79.33;101021.69;4437436;32;34305;-78
2022/10/27 07:31:18;;;;;;;20.20;12.18;;;;;;;13.91;82.83;101031.81;4442622;32;33866;-74
2022/10/27 07:33:46;;;;;;;22.27;13.45;;;;;;;14.29;81.14;101019.47;4452052;32;33940;-73
2022/10/27 07:36:13;;;;;;;24.02;13.80;;;;;;;13.73;83.94;101027.28;4451922;32;33663;-73
2022/10/27 07:38:41;;;;;;;26.67;14.90;;;;;;;14.18;82.28;101033.16;4451569;32;34225;-72
2022/10/27 07:41:08;;;;;;;27.17;15.13;;;;;;;15.11;76.43;101042.88;4452015;32;33984;-73
2022/10/27 07:43:38;;;;;;;24.92;15.60;;;;;;;14.91;76.96;101043.34;4449117;32;34343;-74
2022/10/27 07:46:05;;;;;;;24.25;14.15;;;;;;;14.71;78.15;101048.47;4452006;32;33983;-71
2022/10/27 07:48:38;;;;;;;23.95;14.68;;;;;;;14.57;79.46;101048.72;4451035;32;33290;-73
2022/10/27 07:51:05;;;;;;;23.05;14.00;;;;;;;15.03;77.69;101054.25;4451753;32;34102;-74
2022/10/27 07:53:32;;;;;;;26.50;15.00;;;;;;;14.89;78.18;101050.97;4451902;32;34172;-74
2022/10/27 07:56:01;;;;;;;28.87;15.20;;;;;;;14.07;83.31;101052.06;4456463;32;33459;-72
2022/10/27 07:58:28;;;;;;;28.17;15.77;;;;;;;14.11;83.25;101063.31;4466163;32;34323;-76
2022/10/27 08:00:57;;;;;;;29.35;15.65;;;;;;;14.30;83.01;101069.47;4467277;32;33715;-75
2022/10/27 08:03:28;;;;;;;29.58;15.40;;;;;;;14.77;80.29;101072.03;4467121;32;35779;-75
2022/10/27 08:05:57;;;;;;;29.80;16.15;;;;;;;15.09;77.45;101064.16;4459648;32;34846;-76
2022/10/27 08:08:24;;;;;;;30.83;17.45;;;;;;;14.87;79.24;101079.62;4450862;32;33571;-76
2022/10/27 08:10:52;;;;;;;27.30;15.98;;;;;;;14.65;81.21;101071.28;4451872;32;33702;-77
2022/10/27 08:13:19;;;;;;;31.30;17.25;;;;;;;15.17;77.90;101077.44;4450726;32;34013;-75
2022/10/27 08:15:47;;;;;;;33.88;18.17;;;;;;;15.17;77.80;101076.59;4451472;32;34027;-75
2022/10/27 08:18:15;;;;;;;31.77;18.40;;;;;;;14.90;78.63;101087.31;4451199;32;34385;-80
2022/10/27 08:20:45;;;;;;;31.73;16.70;;;;;;;14.96;79.93;101086.34;4451229;32;33678;-73
2022/10/27 08:23:17;;;;;;;32.38;17.30;;;;;;;14.74;79.68;101087.03;4451183;32;34271;-86
2022/10/27 08:25:45;;;;;;;29.67;17.67;;;;;;;15.08;78.19;101089.84;4452097;32;34831;-78
2022/10/27 08:28:13;;;;;;;32.47;18.05;;;;;;;14.91;79.31;101092.53;4455412;32;33680;-78
2022/10/27 08:30:41;;;;;;;29.85;16.67;;;;;;;14.73;81.20;101090.84;4467716;32;33972;-77
2022/10/27 08:33:22;;;;;;;35.05;19.30;;;;;;;15.12;78.68;101098.41;4467305;32;34288;-78
2022/10/27 08:35:50;;;;;;;32.92;18.58;;;;;;;15.14;77.99;101093.50;4467932;32;34639;-77
2022/10/27 08:38:18;;;;;;;30.52;17.30;;;;;;;15.46;76.68;101101.97;4469898;32;33413;-79
2022/10/27 08:41:06;;;;;;;33.08;18.33;;;;;;;15.52;75.89;101100.97;4448412;32;33906;-77
2022/10/27 08:44:04;;;;;;;31.20;17.58;;;;;;;14.94;79.33;101107.63;4440458;32;34269;-78
2022/10/27 08:46:44;;;;;;;28.65;16.37;;;;;;;14.76;80.32;101108.66;4440442;32;33799;-78
2022/10/27 08:49:39;;;;;;;27.70;16.40;;;;;;;14.91;79.46;101103.47;4454152;32;33808;-77
2022/10/27 08:52:31;;;;;;;31.10;17.95;;;;;;;15.43;76.16;101101.66;4441685;32;34615;-79
2022/10/27 08:55:24;;;;;;;28.83;17.80;;;;;;;15.44;75.74;101092.34;4454573;32;35075;-77
2022/10/27 08:58:02;;;;;;;31.92;17.10;;;;;;;15.37;75.94;101098.00;4453745;32;33941;-79
2022/10/27 09:00:34;;;;;;;30.73;17.65;;;;;;;14.89;78.67;101097.41;4440068;32;34261;-78
2022/10/27 09:03:33;;;;;;;32.45;17.90;;;;;;;15.24;77.49;101090.13;4440921;32;34070;-77
2022/10/27 09:06:03;;;;;;;31.85;17.90;;;;;;;15.89;73.88;101097.75;4440807;32;34212;-78
2022/10/27 09:08:38;;;;;;;30.35;18.10;;;;;;;15.75;74.71;101099.19;4440015;32;33779;-78
2022/10/27 09:11:21;;;;;;;32.15;18.12;;;;;;;15.90;74.26;101093.94;4440264;32;34312;-76
2022/10/27 09:14:01;;;;;;;29.17;17.20;;;;;;;15.38;77.09;101086.81;4454196;32;34820;-78
2022/10/27 09:16:36;;;;;;;29.45;18.15;;;;;;;15.33;78.84;101094.94;4454115;32;33734;-77
2022/10/27 09:19:08;;;;;;;29.48;17.08;;;;;;;15.95;73.77;101093.19;4454000;32;33704;-77
2022/10/27 09:21:35;;;;;;;27.98;17.15;;;;;;;15.59;75.43;101104.41;4454448;32;33536;-78
2022/10/27 09:24:09;;;;;;;29.73;17.35;;;;;;;15.20;78.11;101103.44;4454517;32;34048;-78
2022/10/27 09:26:36;;;;;;;29.67;17.50;;;;;;;15.21;77.50;101098.81;4427989;32;34188;-77
2022/10/27 09:29:24;;;;;;;31.90;18.08;;;;;;;15.99;73.19;101103.38;4453807;32;34034;-77
2022/10/27 09:32:06;;;;;;;32.47;18.42;;;;;;;15.32;76.14;101095.19;4454101;32;33308;-75
2022/10/27 09:34:40;;;;;;;33.78;19.33;;;;;;;14.61;81.01;101092.78;4440377;32;34236;-76
2022/10/27 09:37:18;;;;;;;34.15;18.87;;;;;;;14.93;78.11;101100.50;4446525;32;33110;-75
2022/10/27 09:39:48;;;;;;;31.08;17.83;;;;;;;15.32;77.01;101097.91;4455601;32;34966;-74
2022/10/27 09:42:16;;;;;;;30.70;18.15;;;;;;;15.33;77.65;101097.69;4455127;32;33731;-81
2022/10/27 09:45:03;;;;;;;31.17;18.65;;;;;;;15.71;76.00;101098.00;4470152;32;34077;-74
2022/10/27 09:47:38;;;;;;;29.05;17.15;;;;;;;15.93;75.01;101098.91;4455621;32;34096;-78
2022/10/27 09:50:21;;;;;;;34.10;19.02;;;;;;;15.77;75.60;101099.78;4455735;32;33981;-74
2022/10/27 09:52:49;;;;;;;30.23;19.08;;;;;;;16.05;73.08;101098.81;4469704;32;34192;-75
2022/10/27 09:55:17;;;;;;;27.95;17.08;;;;;;;16.23;72.11;101100.44;4455573;32;33877;-77
2022/10/27 09:57:46;;;;;;;28.62;17.00;;;;;;;16.42;71.19;101100.94;4453631;32;34145;-79
2022/10/27 10:00:20;;;;;;;30.27;18.42;;;;;;;16.19;72.07;101100.09;4438024;32;33994;-79
2022/10/27 10:03:03;;;;;;;31.73;18.17;;;;;;;15.99;73.23;101102.56;4448351;32;34709;-76
2022/10/27 10:05:35;;;;;;;25.80;16.40;;;;;;;16.16;72.39;101102.53;4423774;32;34576;-78
2022/10/27 10:08:37;;;;;;;27.37;17.25;;;;;;;16.37;71.46;101106.34;4438683;32;35215;-75
2022/10/27 10:11:17;;;;;;;32.40;18.55;;;;;;;16.24;72.31;101112.19;4410840;32;33965;-75
2022/10/27 10:14:09;;;;;;;32.33;18.20;;;;;;;16.68;69.76;101101.25;4452375;32;33565;-77
2022/10/27 10:16:43;;;;;;;31.98;18.62;;;;;;;16.20;71.78;101101.75;4439268;32;33822;-76
2022/10/27 10:19:31;;;;;;;31.30;19.17;;;;;;;15.40;75.71;101094.78;4438324;32;34174;-80
2022/10/27 10:21:59;;;;;;;33.47;18.35;;;;;;;15.73;74.72;101109.56;4438641;32;34045;-76
2022/10/27 10:24:33;;;;;;;28.45;17.65;;;;;;;15.91;74.01;101105.72;4452846;32;34439;-77
2022/10/27 10:27:04;;;;;;;31.25;18.73;;;;;;;16.27;71.78;101109.78;4452724;32;33942;-78
2022/10/27 10:29:37;;;;;;;31.60;19.33;;;;;;;16.33;72.84;101110.69;4451862;32;34136;-79
2022/10/27 10:32:25;;;;;;;31.27;18.02;;;;;;;16.60;71.14;101111.56;4438669;32;34285;-76
2022/10/27 10:34:53;;;;;;;31.62;18.12;;;;;;;16.07;73.87;101104.87;4438491;32;33350;-77
2022/10/27 10:37:37;;;;;;;32.40;18.27;;;;;;;15.83;75.18;101104.25;4452694;32;33876;-76
2022/10/27 10:40:10;;;;;;;28.10;17.97;;;;;;;16.78;70.17;101115.91;4452371;32;34376;-75
2022/10/27 10:42:38;;;;;;;32.15;18.40;;;;;;;16.36;72.27;101113.75;4438133;32;34413;-77
2022/10/27 10:45:12;;;;;;;30.58;18.62;;;;;;;16.71;70.87;101101.56;4438124;32;33350;-76
2022/10/27 10:47:46;;;;;;;31.93;18.67;;;;;;;16.50;72.00;101103.25;4438077;32;33898;-78
2022/10/27 10:50:13;;;;;;;30.67;18.58;;;;;;;17.11;68.79;101096.81;4438801;32;35075;-77
2022/10/27 10:52:47;;;;;;;31.75;17.67;;;;;;;17.16;68.18;101100.41;4438299;32;33667;-77
2022/10/27 10:55:25;;;;;;;33.72;18.12;;;;;;;16.59;70.02;101103.62;4438338;32;33336;-78
2022/10/27 10:57:54;;;;;;;29.02;18.10;;;;;;;15.76;74.09;101096.19;4435780;32;33817;-80
2022/10/27 11:00:22;;;;;;;33.38;18.85;;;;;;;16.06;73.85;101095.00;4437484;32;34202;-81
2022/10/27 11:02:52;;;;;;;32.20;17.90;;;;;;;16.06;75.12;101091.44;4451890;32;33884;-83
2022/10/27 11:05:31;;;;;;;32.22;17.95;;;;;;;16.06;74.37;101103.19;4438917;32;33468;-78
2022/10/27 11:07:58;;;;;;;30.45;17.45;;;;;;;16.86;71.97;101100.12;4438284;32;33870;-78
2022/10/27 11:10:31;;;;;;;29.37;17.52;;;;;;;16.30;72.61;101112.00;4452056;32;35143;-77
2022/10/27 11:13:15;;;;;;;30.77;17.95;;;;;;;15.71;75.53;101104.31;4438045;32;35461;-79
2022/10/27 11:16:02;;;;;;;32.25;17.73;;;;;;;15.75;75.49;101101.94;4438400;32;33888;-80
2022/10/27 11:18:35;;;;;;;28.02;17.15;;;;;;;16.18;74.73;101103.94;4437707;32;33750;-81
2022/10/27 11:21:07;;;;;;;32.53;18.27;;;;;;;17.07;71.45;101106.66;4451612;32;33614;-79
2022/10/27 11:23:47;;;;;;;31.20;17.50;;;;;;;17.99;69.71;101101.91;4452510;32;34128;-82
2022/10/27 11:26:20;;;;;;;28.33;17.15;;;;;;;18.01;67.06;101102.47;4436828;32;33714;-78
2022/10/27 11:29:09;;;;;;;29.10;17.02;;;;;;;17.46;67.72;101096.31;4436793;32;34798;-77